Time;durP1;ratioP1;P1;durP2;ratioP2;P2;SDS_P1;SDS_P2;PMS_P1;PMS_P2;Temp;Humidity;BMP_temperature;BMP_pressure;BME280_temperature;BME280_humidity;BME280_pressure;Samples;Min_cycle;Max_cycle;Signal;HPM_P1;HPM_P2
2021/09/03 00:00:39;;;;;;;36.90;34.33;;;;;;;17.41;100.00;102437.95;1972003;73;32960;-79
2021/09/03 00:06:04;;;;;;;38.40;35.50;;;;;;;17.15;100.00;102439.27;1972009;73;30954;-79
2021/09/03 00:11:29;;;;;;;40.77;37.60;;;;;;;16.98;100.00;102443.86;1971964;73;31007;-80
2021/09/03 00:16:54;;;;;;;39.63;36.80;;;;;;;16.91;100.00;102434.05;1971973;73;30957;-79
2021/09/03 00:22:19;;;;;;;41.40;38.30;;;;;;;16.81;100.00;102434.38;1972158;73;31110;-77
2021/09/03 00:27:44;;;;;;;42.13;38.93;;;;;;;16.66;100.00;102429.42;1971947;72;30963;-76
2021/09/03 00:33:09;;;;;;;43.83;40.40;;;;;;;16.56;100.00;102426.66;1972261;73;31471;-77
2021/09/03 00:38:34;;;;;;;46.00;42.30;;;;;;;16.06;100.00;102422.87;1971989;73;31007;-78
2021/09/03 00:43:59;;;;;;;44.43;41.07;;;;;;;16.03;100.00;102409.44;1971992;72;30970;-77
2021/09/03 00:49:23;;;;;;;44.40;41.20;;;;;;;15.79;100.00;102414.78;1971942;73;31118;-77
2021/09/03 00:54:49;;;;;;;45.20;41.60;;;;;;;15.62;100.00;102408.64;1971957;73;32984;-77
2021/09/03 01:00:16;;;;;;;45.07;41.77;;;;;;;15.74;100.00;102395.20;1972178;73;33398;-80
2021/09/03 01:05:42;;;;;;;44.23;40.40;;;;;;;15.57;100.00;102403.06;1972305;73;33408;-79
2021/09/03 01:11:06;;;;;;;47.07;43.63;;;;;;;15.53;100.00;102398.30;1972000;73;32958;-80
2021/09/03 01:16:32;;;;;;;46.70;43.33;;;;;;;15.45;100.00;102385.65;1972226;73;33446;-78
2021/09/03 01:21:57;;;;;;;46.37;42.53;;;;;;;15.37;100.00;102390.41;1965208;71;33011;-77
2021/09/03 01:27:22;;;;;;;46.40;42.80;;;;;;;15.26;100.00;102384.55;1971921;73;33014;-79
2021/09/03 01:32:48;;;;;;;45.87;42.47;;;;;;;15.23;100.00;102374.72;1971895;73;33045;-77
2021/09/03 01:38:15;;;;;;;46.40;43.10;;;;;;;15.14;100.00;102372.78;1971985;73;32940;-78
2021/09/03 01:43:39;;;;;;;45.90;42.23;;;;;;;14.83;100.00;102366.30;1971962;73;32978;-79
2021/09/03 01:49:04;;;;;;;46.20;42.73;;;;;;;14.81;100.00;102362.37;1971861;73;33079;-80
2021/09/03 01:54:28;;;;;;;48.63;44.67;;;;;;;14.69;100.00;102364.58;1971905;73;33006;-77
2021/09/03 01:59:53;;;;;;;48.03;44.17;;;;;;;14.67;100.00;102364.04;1971982;73;33118;-80
2021/09/03 02:05:18;;;;;;;47.33;43.53;;;;;;;14.61;100.00;102366.53;1972138;73;33479;-77
2021/09/03 02:10:42;;;;;;;47.03;43.33;;;;;;;14.44;100.00;102362.56;1971865;73;33046;-79
2021/09/03 02:16:07;;;;;;;47.40;43.80;;;;;;;14.43;100.00;102365.06;1972147;73;32879;-80
2021/09/03 02:21:33;;;;;;;49.83;45.97;;;;;;;14.51;100.00;102360.89;1971696;73;32963;-80
2021/09/03 02:26:58;;;;;;;48.93;45.10;;;;;;;14.46;100.00;102365.91;1971758;73;33104;-80
2021/09/03 02:32:27;;;;;;;48.30;44.30;;;;;;;14.56;100.00;102356.16;1941061;74;33103;-81
2021/09/03 02:37:52;;;;;;;51.60;47.17;;;;;;;14.40;100.00;102359.19;1971936;73;33005;-77
2021/09/03 02:43:17;;;;;;;48.43;44.53;;;;;;;14.25;100.00;102351.54;1972192;73;33572;-79
2021/09/03 02:48:41;;;;;;;50.27;45.90;;;;;;;14.24;100.00;102350.44;1971867;73;33064;-81
2021/09/03 02:54:06;;;;;;;49.33;45.63;;;;;;;14.22;100.00;102338.13;1972076;73;33584;-81
2021/09/03 02:59:31;;;;;;;49.43;45.33;;;;;;;14.05;100.00;102332.74;1972105;73;33407;-79
2021/09/03 03:04:55;;;;;;;49.60;45.43;;;;;;;14.10;100.00;102334.17;1971854;73;33388;-81
2021/09/03 03:10:20;;;;;;;49.70;45.70;;;;;;;14.30;100.00;102325.56;1972149;73;33468;-79
2021/09/03 03:15:44;;;;;;;47.97;43.70;;;;;;;14.40;100.00;102316.70;1971933;73;32917;-79
2021/09/03 03:21:09;;;;;;;49.20;45.07;;;;;;;14.51;100.00;102315.59;1972112;73;33359;-81
2021/09/03 03:26:34;;;;;;;48.47;44.43;;;;;;;14.54;100.00;102307.23;1972195;73;33553;-79
2021/09/03 03:31:58;;;;;;;48.53;44.43;;;;;;;14.45;100.00;102308.88;1972013;73;33019;-82
2021/09/03 03:37:23;;;;;;;46.30;42.43;;;;;;;14.52;100.00;102300.50;1972142;73;33446;-79
2021/09/03 03:42:48;;;;;;;47.10;43.20;;;;;;;14.55;100.00;102295.75;1971996;73;32963;-81
2021/09/03 03:48:12;;;;;;;49.00;44.97;;;;;;;14.64;100.00;102294.64;1971943;73;33008;-79
2021/09/03 03:53:37;;;;;;;48.80;44.83;;;;;;;14.72;100.00;102293.28;1972158;73;33498;-80
2021/09/03 03:59:02;;;;;;;48.60;44.70;;;;;;;14.86;100.00;102281.80;1972148;73;33064;-81
2021/09/03 04:04:26;;;;;;;48.30;44.53;;;;;;;14.88;100.00;102286.58;1971977;73;32901;-81
2021/09/03 04:09:51;;;;;;;48.90;44.83;;;;;;;15.03;100.00;102279.02;1971997;73;32998;-81
2021/09/03 04:15:16;;;;;;;49.97;45.93;;;;;;;15.27;100.00;102277.89;1971919;73;32987;-77
2021/09/03 04:20:41;;;;;;;49.33;44.97;;;;;;;15.25;100.00;102274.52;1972042;72;32889;-80
2021/09/03 04:26:06;;;;;;;49.73;45.67;;;;;;;15.12;100.00;102268.09;1971852;73;32980;-80
2021/09/03 04:31:31;;;;;;;50.20;45.63;;;;;;;15.26;100.00;102259.95;1971926;73;32900;-80
2021/09/03 04:36:55;;;;;;;48.33;44.33;;;;;;;15.30;100.00;102256.87;1971901;73;32993;-80
2021/09/03 04:42:20;;;;;;;46.90;43.30;;;;;;;15.36;100.00;102249.56;1972062;73;33465;-81
2021/09/03 04:47:44;;;;;;;48.10;43.97;;;;;;;15.37;100.00;102249.84;1971928;72;32942;-82
2021/09/03 04:53:10;;;;;;;48.37;44.57;;;;;;;15.37;100.00;102250.41;1972329;73;32998;-81
2021/09/03 04:58:34;;;;;;;49.30;45.10;;;;;;;15.48;100.00;102250.13;1972090;73;32929;-80
2021/09/03 05:03:59;;;;;;;48.50;44.43;;;;;;;15.45;100.00;102242.27;1971988;73;32907;-79
2021/09/03 05:09:24;;;;;;;47.60;43.60;;;;;;;15.55;100.00;102251.23;1972340;73;33009;-81
2021/09/03 05:14:48;;;;;;;49.23;45.13;;;;;;;15.57;100.00;102248.16;1972099;73;33096;-81
2021/09/03 05:20:17;;;;;;;48.17;44.10;;;;;;;15.69;100.00;102251.48;1972031;72;32995;-81
2021/09/03 05:25:42;;;;;;;46.33;42.77;;;;;;;15.57;100.00;102251.81;1972094;73;32910;-81
2021/09/03 05:31:07;;;;;;;47.90;44.00;;;;;;;15.60;100.00;102250.39;1972196;72;33424;-80
2021/09/03 05:36:32;;;;;;;49.23;45.30;;;;;;;15.70;100.00;102239.97;1972221;73;33411;-77
2021/09/03 05:41:48;;;;;;;48.13;44.13;;;;;;;15.74;100.00;102240.27;1977925;72;33303;-80
2021/09/03 05:47:15;;;;;;;49.87;46.17;;;;;;;15.67;100.00;102254.55;1972184;73;33424;-82
2021/09/03 05:52:54;;;;;;;51.37;47.53;;;;;;;15.73;100.00;102257.63;1972219;72;33474;-78
2021/09/03 05:58:29;;;;;;;51.70;47.50;;;;;;;15.79;100.00;102250.86;1977708;72;32938;-77
2021/09/03 06:04:03;;;;;;;49.80;46.07;;;;;;;15.82;100.00;102253.12;1972454;73;32891;-85
2021/09/03 06:09:20;;;;;;;47.70;44.03;;;;;;;15.78;100.00;102246.97;1977882;72;32783;-83
2021/09/03 06:14:50;;;;;;;48.80;45.03;;;;;;;15.91;100.00;102256.16;2063028;69;31341;-76
2021/09/03 06:20:17;;;;;;;49.43;45.40;;;;;;;15.96;100.00;102263.71;1972333;73;33470;-83
2021/09/03 06:25:51;;;;;;;49.73;45.67;;;;;;;16.05;100.00;102261.96;1972294;73;33105;-78
2021/09/03 06:31:18;;;;;;;47.30;43.80;;;;;;;16.00;100.00;102264.81;1971933;73;33023;-76
2021/09/03 06:36:43;;;;;;;47.63;43.73;;;;;;;16.10;100.00;102265.59;1977192;72;33037;-82
2021/09/03 06:42:16;;;;;;;48.27;44.33;;;;;;;16.22;100.00;102279.25;1972174;73;33407;-78
2021/09/03 06:47:43;;;;;;;48.33;44.30;;;;;;;16.39;100.00;102272.70;1972122;73;33420;-83
2021/09/03 06:53:16;;;;;;;48.57;43.90;;;;;;;16.48;100.00;102272.94;1972037;73;32987;-84
2021/09/03 06:58:44;;;;;;;48.93;44.67;;;;;;;16.56;100.00;102265.34;1947812;74;33547;-77
2021/09/03 07:04:10;;;;;;;47.50;43.23;;;;;;;16.57;100.00;102260.84;1972176;72;33526;-77
2021/09/03 07:09:36;;;;;;;46.07;41.90;;;;;;;16.62;100.00;102259.97;1971942;73;32916;-76
2021/09/03 07:15:01;;;;;;;46.40;42.60;;;;;;;16.79;100.00;102257.59;1972009;73;33002;-84
2021/09/03 07:20:26;;;;;;;46.13;42.43;;;;;;;16.86;100.00;102253.88;1972168;73;33056;-81
2021/09/03 07:25:51;;;;;;;46.47;42.57;;;;;;;16.99;100.00;102259.39;1972214;73;33497;-85
2021/09/03 07:31:16;;;;;;;44.60;41.00;;;;;;;16.99;100.00;102250.97;1971983;73;32936;-74
2021/09/03 07:36:43;;;;;;;44.23;40.33;;;;;;;17.07;100.00;102251.77;1972212;73;33429;-78
2021/09/03 07:42:10;;;;;;;45.17;41.20;;;;;;;17.21;100.00;102243.73;1972249;73;31550;-74
2021/09/03 07:47:34;;;;;;;46.50;42.67;;;;;;;17.23;100.00;102242.89;1972218;73;33476;-78
2021/09/03 07:53:00;;;;;;;46.67;42.23;;;;;;;17.27;100.00;102232.73;1971981;73;30973;-79
2021/09/03 07:58:26;;;;;;;45.43;41.73;;;;;;;17.51;100.00;102242.58;1971874;73;33048;-74
2021/09/03 08:03:51;;;;;;;47.13;42.80;;;;;;;17.65;100.00;102245.55;1972234;73;30968;-78
2021/09/03 08:09:16;;;;;;;44.17;40.57;;;;;;;17.89;100.00;102232.88;1971966;73;30971;-79
2021/09/03 08:14:40;;;;;;;43.97;40.53;;;;;;;18.11;100.00;102233.98;1971892;73;32917;-78
2021/09/03 08:20:08;;;;;;;48.90;45.30;;;;;;;18.09;100.00;102230.65;1971932;73;31048;-76
2021/09/03 08:25:34;;;;;;;51.70;47.87;;;;;;;18.25;100.00;102229.02;1972246;73;31566;-78
2021/09/03 08:31:00;;;;;;;44.73;41.03;;;;;;;18.28;100.00;102226.98;1972011;73;31077;-76
2021/09/03 08:36:25;;;;;;;45.13;41.27;;;;;;;18.44;100.00;102223.64;1972309;73;31546;-78
2021/09/03 08:41:50;;;;;;;43.27;39.70;;;;;;;18.72;100.00;102230.28;1971898;73;31086;-75
2021/09/03 08:47:15;;;;;;;44.17;40.47;;;;;;;18.98;100.00;102223.64;1971904;73;31027;-76
2021/09/03 08:52:44;;;;;;;43.80;40.03;;;;;;;19.26;100.00;102221.70;1972048;73;31045;-76
2021/09/03 08:58:14;;;;;;;41.50;38.07;;;;;;;19.53;100.00;102218.96;1972266;73;31541;-77
2021/09/03 09:03:40;;;;;;;43.30;40.00;;;;;;;19.57;100.00;102220.01;1972246;73;31031;-77
2021/09/03 09:09:07;;;;;;;41.80;38.37;;;;;;;19.83;100.00;102211.86;1972198;73;31459;-76
2021/09/03 09:14:51;;;;;;;45.23;41.80;;;;;;;19.59;100.00;102212.09;1971959;73;30972;-77
2021/09/03 09:20:27;;;;;;;45.23;41.97;;;;;;;19.79;100.00;102209.41;1972210;73;31514;-76
2021/09/03 09:25:55;;;;;;;45.53;41.90;;;;;;;20.08;100.00;102209.88;1972004;73;30977;-76
2021/09/03 09:31:33;;;;;;;40.63;37.37;;;;;;;20.09;100.00;102213.54;1972076;73;30951;-78
2021/09/03 09:37:12;;;;;;;43.47;40.17;;;;;;;20.11;100.00;102216.30;1972157;73;31543;-78
2021/09/03 09:42:38;;;;;;;41.13;38.03;;;;;;;19.87;100.00;102217.96;1971927;73;31035;-78
2021/09/03 09:48:06;;;;;;;40.63;37.50;;;;;;;20.24;100.00;102201.32;1971927;72;30969;-78
2021/09/03 09:53:31;;;;;;;39.77;36.67;;;;;;;20.36;100.00;102196.59;1972054;73;30961;-80
2021/09/03 09:58:57;;;;;;;39.70;36.70;;;;;;;20.41;100.00;102195.86;1900585;75;31209;-82
2021/09/03 10:04:26;;;;;;;40.53;37.57;;;;;;;20.51;100.00;102191.97;1972242;73;31429;-83
2021/09/03 10:09:58;;;;;;;40.47;37.27;;;;;;;20.47;100.00;102195.75;2062740;69;30820;-83
2021/09/03 10:15:24;;;;;;;41.13;38.07;;;;;;;20.54;100.00;102196.16;1972248;73;31027;-80
2021/09/03 10:20:49;;;;;;;41.30;38.20;;;;;;;20.50;100.00;102195.94;1972070;73;30961;-81
2021/09/03 10:26:56;;;;;;;41.07;37.90;;;;;;;20.71;100.00;102191.45;1972239;73;31501;-82
2021/09/03 10:32:26;;;;;;;41.57;38.57;;;;;;;20.99;100.00;102188.48;1972300;73;31427;-82
2021/09/03 10:37:57;;;;;;;44.70;41.40;;;;;;;21.06;100.00;102194.50;1971937;73;31026;-75
2021/09/03 10:43:42;;;;;;;41.67;38.37;;;;;;;21.03;100.00;102183.28;1972077;73;31489;-82
2021/09/03 10:49:08;;;;;;;39.67;36.47;;;;;;;21.14;100.00;102179.03;1977432;72;31003;-75
2021/09/03 10:54:36;;;;;;;38.67;35.80;;;;;;;21.53;100.00;102180.20;1973038;73;31105;-81
2021/09/03 11:06:35;;;;;;;37.63;34.87;;;;;;;21.26;100.00;102171.39;1971976;73;30947;-78
2021/09/03 11:14:56;;;;;;;39.47;36.57;;;;;;;20.99;100.00;102171.53;2061456;69;33255;-79
2021/09/03 11:17:32;;;;;;;40.03;36.87;;;;;;;20.87;100.00;102172.14;1950914;73;24206;-81
2021/09/03 11:20:03;;;;;;;39.77;36.73;;;;;;;20.89;100.00;102169.23;1950705;73;24237;-76
2021/09/03 11:22:36;;;;;;;40.12;37.35;;;;;;;20.88;100.00;102163.89;2001509;71;24171;-80
2021/09/03 11:25:08;;;;;;;40.67;37.87;;;;;;;20.89;100.00;102166.98;1994196;72;24115;-79
2021/09/03 11:27:41;;;;;;;41.67;38.47;;;;;;;20.93;100.00;102168.58;1993897;72;24791;-85
2021/09/03 11:33:06;;;;;;;41.53;38.43;;;;;;;21.05;100.00;102151.28;1972756;73;33442;-85
2021/09/03 11:38:31;;;;;;;38.97;36.27;;;;;;;21.17;100.00;102140.26;1972279;73;31520;-83
2021/09/03 11:44:09;;;;;;;40.83;37.83;;;;;;;21.05;100.00;102147.65;1972210;73;30958;-83
2021/09/03 11:49:34;;;;;;;39.27;36.27;;;;;;;21.20;100.00;102144.41;1972013;73;31040;-76
2021/09/03 11:55:04;;;;;;;40.43;37.17;;;;;;;21.20;100.00;102136.77;1971985;73;31095;-73
2021/09/03 12:00:52;;;;;;;40.00;37.23;;;;;;;21.18;100.00;102140.48;1972016;73;31171;-73
2021/09/03 12:06:38;;;;;;;41.60;38.43;;;;;;;21.21;100.00;102129.97;2016399;71;30933;-75
2021/09/03 12:12:29;;;;;;;41.30;38.27;;;;;;;21.41;100.00;102126.28;1972007;73;30957;-79
2021/09/03 12:17:57;;;;;;;41.85;38.63;;;;;;;21.43;100.00;102109.84;1972339;73;30972;-82
2021/09/03 12:23:23;;;;;;;40.88;38.02;;;;;;;21.49;100.00;102115.00;1972075;73;30973;-72
2021/09/03 12:28:58;;;;;;;42.07;38.80;;;;;;;21.40;100.00;102116.97;1972032;73;30968;-77
2021/09/03 12:34:27;;;;;;;43.73;40.53;;;;;;;21.39;100.00;102113.91;1972035;73;31082;-80
2021/09/03 12:36:57;;;;;;;40.53;37.43;;;;;;;;;;1934965;74;24722;-72
2021/09/03 12:42:22;;;;;;;42.58;39.33;;;;;;;21.71;100.00;102113.48;1972041;73;31049;-75
2021/09/03 12:48:06;;;;;;;41.35;38.45;;;;;;;21.78;100.00;102101.66;1972238;73;31585;-74
2021/09/03 12:53:31;;;;;;;41.85;38.60;;;;;;;21.67;100.00;102101.16;1972294;73;31429;-82
2021/09/03 12:58:56;;;;;;;41.05;37.93;;;;;;;21.68;100.00;102092.94;1971989;73;31058;-75
2021/09/03 13:04:24;;;;;;;39.53;36.58;;;;;;;21.66;100.00;102083.09;1972041;73;31115;-76
2021/09/03 13:09:52;;;;;;;40.77;37.67;;;;;;;21.68;100.00;102082.20;1971945;73;30979;-80
2021/09/03 13:15:16;;;;;;;41.37;38.05;;;;;;;21.58;100.00;102069.20;1971954;72;31107;-81
2021/09/03 13:20:42;;;;;;;42.15;38.92;;;;;;;21.65;100.00;102069.53;1971208;73;31019;-80
2021/09/03 13:26:07;;;;;;;43.57;40.17;;;;;;;21.62;100.00;102065.96;1972107;73;30980;-74
2021/09/03 13:31:33;;;;;;;41.50;38.40;;;;;;;21.65;100.00;102070.95;1972028;73;30988;-74
2021/09/03 13:36:59;;;;;;;42.45;39.25;;;;;;;21.79;100.00;102058.07;1972027;73;31132;-79
2021/09/03 13:42:30;;;;;;;43.60;40.48;;;;;;;21.71;100.00;102051.25;1971969;73;31081;-79
2021/09/03 13:47:55;;;;;;;42.90;39.65;;;;;;;21.67;100.00;102046.01;1971967;73;30971;-76
2021/09/03 13:53:20;;;;;;;42.83;39.53;;;;;;;21.72;100.00;102044.44;1972139;73;30973;-74
2021/09/03 13:58:45;;;;;;;42.90;39.73;;;;;;;21.72;100.00;102041.61;1972231;73;32324;-73
2021/09/03 14:04:10;;;;;;;43.40;40.10;;;;;;;21.88;100.00;102036.28;1972036;73;30976;-80
2021/09/03 14:09:37;;;;;;;41.00;38.10;;;;;;;21.99;100.00;102025.50;1971973;73;30970;-79
2021/09/03 14:15:02;;;;;;;40.95;38.00;;;;;;;22.07;100.00;102026.08;1972068;73;30970;-79
2021/09/03 14:20:27;;;;;;;39.58;36.75;;;;;;;22.16;100.00;102012.75;1972307;73;31006;-80
2021/09/03 14:25:54;;;;;;;39.27;36.10;;;;;;;22.16;100.00;102005.67;1972080;73;30942;-81
2021/09/03 14:31:18;;;;;;;40.60;37.38;;;;;;;22.45;100.00;102000.68;1972062;73;30952;-80
2021/09/03 14:37:08;;;;;;;39.30;36.40;;;;;;;22.45;100.00;101995.86;1989634;71;31381;-80
2021/09/03 14:42:32;;;;;;;38.70;36.08;;;;;;;22.47;100.00;101982.75;1971992;73;31108;-85
2021/09/03 14:48:04;;;;;;;40.30;37.30;;;;;;;22.65;100.00;101978.11;1972457;73;30947;-85
2021/09/03 14:53:36;;;;;;;39.05;35.98;;;;;;;22.58;100.00;101964.23;1971994;73;31039;-74
2021/09/03 14:59:01;;;;;;;40.70;37.70;;;;;;;22.71;100.00;101961.80;1972079;73;30984;-85
2021/09/03 15:04:30;;;;;;;38.08;35.23;;;;;;;22.77;100.00;101962.41;1972234;73;31439;-80
2021/09/03 15:09:55;;;;;;;37.67;34.70;;;;;;;22.53;100.00;101952.51;1972205;73;31086;-84
2021/09/03 15:15:19;;;;;;;38.67;35.98;;;;;;;22.65;100.00;101951.20;1972182;73;31131;-81
2021/09/03 15:20:44;;;;;;;37.40;34.63;;;;;;;22.53;100.00;101952.51;1972012;73;31071;-79
2021/09/03 15:26:10;;;;;;;39.03;36.10;;;;;;;22.37;100.00;101946.33;1972224;73;31498;-87
2021/09/03 15:31:35;;;;;;;39.73;37.00;;;;;;;22.28;100.00;101938.45;1972194;73;31513;-79
2021/09/03 15:37:00;;;;;;;41.05;38.15;;;;;;;22.38;100.00;101932.43;1972191;73;31520;-74
2021/09/03 15:42:24;;;;;;;40.03;37.08;;;;;;;22.35;100.00;101918.34;1972027;73;30974;-76
2021/09/03 15:47:51;;;;;;;41.00;37.93;;;;;;;22.26;100.00;101917.55;1972357;73;31028;-86
2021/09/03 15:53:18;;;;;;;41.28;38.50;;;;;;;22.17;100.00;101911.91;1972382;73;31146;-85
2021/09/03 15:58:43;;;;;;;39.50;36.88;;;;;;;22.18;100.00;101912.75;1971973;73;30971;-80
2021/09/03 16:04:07;;;;;;;40.20;37.28;;;;;;;22.28;100.00;101908.72;1972188;73;31046;-75
2021/09/03 16:09:32;;;;;;;40.92;37.88;;;;;;;22.25;100.00;101904.55;1971977;73;31068;-82
2021/09/03 16:14:59;;;;;;;42.70;39.15;;;;;;;22.05;100.00;101902.47;1971988;73;31032;-75
2021/09/03 16:20:27;;;;;;;42.00;39.10;;;;;;;21.78;100.00;101903.66;1972040;73;30997;-84
2021/09/03 16:25:54;;;;;;;42.08;38.88;;;;;;;21.55;100.00;101900.79;1972023;73;31049;-76
2021/09/03 16:31:23;;;;;;;43.63;40.43;;;;;;;21.40;100.00;101903.53;1972399;73;31198;-83
2021/09/03 16:36:48;;;;;;;41.42;38.58;;;;;;;21.64;100.00;101905.86;1972040;73;31506;-73
2021/09/03 16:42:15;;;;;;;41.73;38.83;;;;;;;21.69;100.00;101903.66;1972070;73;30975;-73
2021/09/03 16:47:40;;;;;;;43.65;40.75;;;;;;;21.65;100.00;101910.36;1972179;73;31459;-80
2021/09/03 16:53:06;;;;;;;43.65;40.43;;;;;;;21.47;100.00;101893.98;1972331;73;31586;-73
2021/09/03 16:58:32;;;;;;;45.03;41.92;;;;;;;21.35;100.00;101890.97;1972153;73;31449;-73
2021/09/03 17:03:57;;;;;;;43.93;40.63;;;;;;;21.33;100.00;101882.01;1945194;72;31215;-68
2021/09/03 17:09:22;;;;;;;43.40;40.17;;;;;;;21.33;100.00;101876.36;1972068;73;31103;-68
2021/09/03 17:14:47;;;;;;;43.63;40.17;;;;;;;21.16;100.00;101879.19;1971971;73;31057;-68
2021/09/03 17:20:14;;;;;;;43.90;40.58;;;;;;;21.02;100.00;101880.71;1972133;73;31510;-71
2021/09/03 17:25:38;;;;;;;44.00;40.77;;;;;;;20.85;100.00;101869.39;1972081;73;31075;-70
2021/09/03 17:31:04;;;;;;;45.00;41.53;;;;;;;20.80;100.00;101875.19;1972139;73;31508;-67
2021/09/03 17:36:34;;;;;;;44.03;41.03;;;;;;;20.79;100.00;101886.27;1971897;73;31373;-70
2021/09/03 17:42:00;;;;;;;44.07;40.83;;;;;;;20.84;100.00;101877.61;1972189;73;31590;-69
2021/09/03 17:47:45;;;;;;;41.17;37.83;;;;;;;20.93;100.00;101881.28;2008107;71;30842;-69
2021/09/03 17:53:09;;;;;;;43.23;40.03;;;;;;;20.87;100.00;101873.56;1971940;72;31018;-69
2021/09/03 17:58:34;;;;;;;43.50;40.30;;;;;;;20.73;100.00;101875.69;1971920;73;31093;-72
2021/09/03 18:04:00;;;;;;;43.90;40.63;;;;;;;20.63;100.00;101868.93;1972204;73;30973;-71
2021/09/03 18:09:26;;;;;;;47.40;44.20;;;;;;;20.35;100.00;101887.28;1972035;73;31047;-68
2021/09/03 18:15:00;;;;;;;47.50;43.97;;;;;;;20.05;100.00;101884.71;1972189;73;31485;-72
2021/09/03 18:20:43;;;;;;;45.37;42.17;;;;;;;20.22;100.00;101879.72;1995695;71;32925;-71
2021/09/03 18:26:08;;;;;;;45.17;41.90;;;;;;;20.04;100.00;101880.79;1972039;73;31075;-70
2021/09/03 18:31:39;;;;;;;45.53;42.33;;;;;;;20.02;100.00;101888.19;1972211;73;31422;-71
2021/09/03 18:37:04;;;;;;;46.07;42.63;;;;;;;19.84;100.00;101890.07;1972085;73;31072;-70
2021/09/03 18:42:30;;;;;;;48.50;44.90;;;;;;;19.59;100.00;101899.77;1971940;73;31024;-73
2021/09/03 18:47:56;;;;;;;46.70;43.23;;;;;;;19.47;100.00;101907.37;1972156;73;31471;-70
2021/09/03 18:53:21;;;;;;;48.50;44.60;;;;;;;19.41;100.00;101912.28;1971885;73;31084;-71
2021/09/03 18:58:45;;;;;;;49.73;45.83;;;;;;;19.27;100.00;101912.90;1971954;73;30952;-69
2021/09/03 19:04:10;;;;;;;50.63;47.07;;;;;;;19.36;100.00;101912.97;1972004;73;30986;-69
2021/09/03 19:09:34;;;;;;;50.90;47.13;;;;;;;19.32;100.00;101919.83;1972192;73;31027;-70
2021/09/03 19:15:03;;;;;;;48.80;45.13;;;;;;;19.13;100.00;101925.34;1971931;73;31013;-71
2021/09/03 19:20:26;;;;;;;49.07;45.17;;;;;;;19.13;100.00;101934.63;1972155;73;30956;-72
2021/09/03 19:25:51;;;;;;;52.70;48.60;;;;;;;19.08;100.00;101948.85;1972138;73;31518;-71
2021/09/03 19:31:16;;;;;;;51.57;47.57;;;;;;;18.98;100.00;101950.48;1971950;73;30950;-72
2021/09/03 19:36:41;;;;;;;53.60;49.30;;;;;;;18.89;100.00;101960.23;1972219;73;30941;-70
2021/09/03 19:42:07;;;;;;;51.30;47.47;;;;;;;18.83;100.00;101964.30;1972109;73;30959;-72
2021/09/03 19:47:32;;;;;;;52.13;47.67;;;;;;;18.86;100.00;101966.50;1971962;73;31006;-72
2021/09/03 19:52:57;;;;;;;53.00;48.07;;;;;;;18.86;100.00;101978.34;1972122;73;33390;-71
2021/09/03 19:58:24;;;;;;;52.47;48.10;;;;;;;18.71;100.00;101976.66;1972208;73;31020;-71
2021/09/03 20:03:49;;;;;;;54.37;49.50;;;;;;;18.59;100.00;101987.61;1972225;73;30958;-69
2021/09/03 20:09:15;;;;;;;53.57;49.03;;;;;;;18.62;100.00;101980.78;1972166;73;31542;-71
2021/09/03 20:14:40;;;;;;;56.23;51.10;;;;;;;18.46;100.00;101982.77;1971987;73;31042;-72
2021/09/03 20:20:06;;;;;;;59.23;54.40;;;;;;;18.41;100.00;101986.51;1971962;72;31050;-72
2021/09/03 20:25:30;;;;;;;57.80;52.37;;;;;;;18.33;100.00;101991.45;1972143;73;31523;-72
2021/09/03 20:30:55;;;;;;;58.90;53.83;;;;;;;18.31;100.00;101999.37;1971969;73;31025;-71
2021/09/03 20:36:21;;;;;;;57.03;52.23;;;;;;;18.17;100.00;102007.78;1971974;73;30947;-70
2021/09/03 20:41:46;;;;;;;57.73;52.90;;;;;;;18.15;100.00;102001.61;1971941;73;30935;-73
2021/09/03 20:47:11;;;;;;;59.17;54.00;;;;;;;18.04;100.00;102007.73;1971973;73;31035;-73
2021/09/03 20:52:35;;;;;;;60.83;55.53;;;;;;;18.00;100.00;102010.89;1972004;73;30997;-71
2021/09/03 20:58:03;;;;;;;65.40;59.37;;;;;;;17.91;100.00;102009.35;1971900;73;31053;-73
2021/09/03 21:03:29;;;;;;;58.50;53.37;;;;;;;17.90;100.00;101998.41;1971981;73;31112;-74
2021/09/03 21:08:53;;;;;;;57.33;52.27;;;;;;;17.84;100.00;101994.83;1971912;73;31038;-72
2021/09/03 21:14:18;;;;;;;57.40;52.47;;;;;;;17.66;100.00;101988.12;1972215;73;33485;-74
2021/09/03 21:19:42;;;;;;;53.70;49.27;;;;;;;17.57;100.00;101985.70;1972140;73;32915;-72
2021/09/03 21:25:09;;;;;;;56.63;51.70;;;;;;;17.40;100.00;101993.83;1972132;73;31060;-73
2021/09/03 21:30:34;;;;;;;56.00;51.30;;;;;;;17.25;100.00;102001.05;1971971;73;30963;-75
2021/09/03 21:36:01;;;;;;;54.60;50.20;;;;;;;17.05;100.00;101998.53;1972019;73;31027;-74
2021/09/03 21:41:26;;;;;;;55.23;50.90;;;;;;;16.90;100.00;101996.73;1972193;73;30950;-71
2021/09/03 21:46:50;;;;;;;57.37;52.53;;;;;;;16.70;100.00;102000.64;1971959;73;32990;-72
2021/09/03 21:52:15;;;;;;;58.87;54.17;;;;;;;16.49;100.00;101999.17;1971977;73;30953;-72
2021/09/03 21:57:40;;;;;;;58.93;53.77;;;;;;;16.39;100.00;102000.10;1972107;72;33420;-72
2021/09/03 22:03:07;;;;;;;58.50;53.53;;;;;;;16.26;100.00;102017.63;1972031;73;31025;-72
2021/09/03 22:08:31;;;;;;;56.93;52.10;;;;;;;16.18;100.00;102007.05;1971917;73;32865;-72
2021/09/03 22:13:56;;;;;;;55.47;51.03;;;;;;;15.91;100.00;102012.36;1971998;73;30951;-72
2021/09/03 22:19:22;;;;;;;55.90;51.30;;;;;;;16.01;100.00;102009.45;1971985;73;31055;-71
2021/09/03 22:24:48;;;;;;;54.50;50.23;;;;;;;15.88;100.00;102003.95;1971964;73;32957;-74
2021/09/03 22:30:13;;;;;;;56.27;51.47;;;;;;;15.60;100.00;102014.55;1971953;73;31015;-74
2021/09/03 22:35:42;;;;;;;56.43;52.13;;;;;;;15.44;100.00;102019.95;1971926;73;30953;-72
2021/09/03 22:41:05;;;;;;;57.70;52.60;;;;;;;15.30;100.00;102021.14;1971980;73;32919;-74
2021/09/03 22:46:30;;;;;;;55.90;51.10;;;;;;;15.56;100.00;102030.82;1971958;73;33063;-73
2021/09/03 22:51:55;;;;;;;55.13;50.63;;;;;;;15.61;100.00;102030.23;1972193;73;33006;-72
2021/09/03 22:57:19;;;;;;;54.27;49.97;;;;;;;15.28;100.00;102030.37;1971949;73;33001;-72
2021/09/03 23:02:44;;;;;;;54.70;50.23;;;;;;;15.38;100.00;102027.53;1971940;73;32906;-72
2021/09/03 23:08:09;;;;;;;55.43;50.47;;;;;;;15.39;100.00;102015.77;1971933;73;33013;-72
2021/09/03 23:13:34;;;;;;;53.60;49.23;;;;;;;15.44;100.00;102013.78;1971918;73;32895;-72
2021/09/03 23:18:58;;;;;;;55.07;50.77;;;;;;;15.57;100.00;102014.30;1971926;72;32899;-72
2021/09/03 23:24:23;;;;;;;53.87;49.40;;;;;;;15.77;100.00;102002.38;1971901;73;32884;-72
2021/09/03 23:29:48;;;;;;;53.70;49.27;;;;;;;15.59;100.00;102016.23;1971932;73;32978;-72
2021/09/03 23:35:12;;;;;;;54.80;50.60;;;;;;;15.55;100.00;102014.57;1972169;73;32979;-74
2021/09/03 23:40:37;;;;;;;54.07;49.43;;;;;;;15.32;100.00;102021.67;1971866;73;32953;-72
2021/09/03 23:46:02;;;;;;;51.73;47.70;;;;;;;15.35;100.00;102023.92;1971949;73;32978;-74
2021/09/03 23:51:26;;;;;;;53.57;48.87;;;;;;;15.32;100.00;102022.23;1971900;73;33386;-75
2021/09/03 23:56:51;;;;;;;51.90;47.87;;;;;;;15.50;100.00;102014.60;1972173;73;33453;-72
